createdAt,value
2022-11-04T08:06:03.470Z,5.97
2022-11-04T08:08:30.393Z,6.03
2022-11-04T08:11:14.238Z,5.23
2022-11-04T08:13:43.748Z,4.03
2022-11-04T08:16:13.432Z,6.20
2022-11-04T08:18:41.076Z,6.13
2022-11-04T08:21:07.892Z,5.10
2022-11-04T08:38:22.972Z,6.87
2022-11-04T08:40:49.593Z,5.57
2022-11-04T08:43:16.290Z,5.37
2022-11-04T08:45:46.680Z,5.70
2022-11-04T08:48:14.133Z,6.07
2022-11-04T08:50:40.969Z,6.70
2022-11-04T08:53:07.844Z,6.23
2022-11-04T08:55:35.080Z,5.47
2022-11-04T08:58:05.025Z,5.40
2022-11-04T09:00:33.101Z,5.60
2022-11-04T09:02:59.833Z,6.30
2022-11-04T09:05:26.615Z,5.27
2022-11-04T09:07:53.245Z,5.87
2022-11-04T09:10:21.113Z,5.73
2022-11-04T09:12:47.703Z,5.90
2022-11-04T09:15:14.311Z,4.93
2022-11-04T09:17:41.111Z,5.97
2022-11-04T09:20:08.095Z,5.33
2022-11-04T09:22:34.669Z,5.83
2022-11-04T09:25:01.672Z,5.03
2022-11-04T09:27:28.218Z,6.40
2022-11-04T09:29:54.779Z,5.17
2022-11-04T09:32:21.557Z,6.10
2022-11-04T09:34:48.170Z,4.93
2022-11-04T09:37:15.959Z,5.73
2022-11-04T09:39:42.495Z,5.37
2022-11-04T09:42:18.727Z,5.00
2022-11-04T09:45:19.326Z,5.00
2022-11-04T09:47:39.600Z,4.80
2022-11-04T09:50:11.381Z,4.50
2022-11-04T09:52:44.397Z,5.03
2022-11-04T09:55:18.589Z,5.43
2022-11-04T09:57:47.840Z,4.15
2022-11-04T10:00:17.771Z,4.63
2022-11-04T10:02:59.802Z,3.47
2022-11-04T10:05:35.405Z,4.72
2022-11-04T10:08:36.780Z,4.00
2022-11-04T10:11:12.664Z,4.38
2022-11-04T10:13:50.982Z,3.53
2022-11-04T10:16:41.482Z,3.50
2022-11-04T10:19:19.078Z,3.78
2022-11-04T10:22:00.502Z,3.67
2022-11-04T10:24:43.477Z,4.35
2022-11-04T10:27:13.306Z,3.88
2022-11-04T10:29:50.416Z,3.55
2022-11-04T10:32:27.225Z,3.35
2022-11-04T10:35:16.939Z,2.72
2022-11-04T10:37:43.728Z,3.60
2022-11-04T10:40:16.590Z,3.90
2022-11-04T10:42:43.153Z,3.58
2022-11-04T10:45:13.802Z,3.65
2022-11-04T10:47:52.044Z,3.47
2022-11-04T10:50:28.999Z,3.60
2022-11-04T10:53:13.627Z,3.10
2022-11-04T10:55:55.039Z,3.05
2022-11-04T10:58:24.837Z,3.63
2022-11-04T11:00:52.210Z,3.40
2022-11-04T11:03:27.910Z,3.90
2022-11-04T11:06:10.782Z,3.72
2022-11-04T11:08:38.185Z,3.80
2022-11-04T11:11:06.755Z,3.85
2022-11-04T11:13:40.008Z,4.18
2022-11-04T11:16:11.807Z,3.30
2022-11-04T11:18:39.611Z,3.90
2022-11-04T11:21:18.392Z,3.25
2022-11-04T11:23:47.570Z,3.17
2022-11-04T11:26:20.148Z,3.20
2022-11-04T11:28:59.232Z,3.80
2022-11-04T11:31:26.828Z,3.80
2022-11-04T11:33:58.210Z,4.78
2022-11-04T11:36:26.396Z,3.67
2022-11-04T11:38:56.581Z,3.72
2022-11-04T11:41:31.323Z,3.90
2022-11-04T11:44:44.169Z,4.50
2022-11-04T11:47:22.333Z,4.45
2022-11-04T11:50:18.209Z,3.72
2022-11-04T11:52:46.357Z,4.15
2022-11-04T11:55:26.567Z,4.20
2022-11-04T12:01:03.704Z,3.97
2022-11-04T12:10:02.282Z,4.03
2022-11-04T12:12:53.350Z,4.57
2022-11-04T12:15:20.030Z,4.20
2022-11-04T12:18:08.450Z,3.85
2022-11-04T12:20:47.181Z,3.83
2022-11-04T12:23:26.792Z,5.35
2022-11-04T12:26:11.068Z,3.95
2022-11-04T12:28:47.714Z,4.10
2022-11-04T12:31:36.272Z,3.38
2022-11-04T12:34:14.806Z,3.70
2022-11-04T12:36:51.817Z,4.10
2022-11-04T12:39:55.600Z,3.70
2022-11-04T12:42:47.219Z,3.25
2022-11-04T12:45:46.143Z,4.15
2022-11-04T12:48:24.119Z,3.53
2022-11-04T12:50:58.376Z,4.20
2022-11-04T12:53:48.002Z,3.25
2022-11-04T12:56:20.530Z,4.18
2022-11-04T12:58:56.264Z,3.53
2022-11-04T13:01:33.378Z,3.60
2022-11-04T13:04:20.565Z,3.70
2022-11-04T13:06:52.262Z,3.63
2022-11-04T13:09:30.661Z,4.10
2022-11-04T13:12:03.876Z,5.13
2022-11-04T13:14:35.601Z,4.53
2022-11-04T13:17:06.559Z,4.13
2022-11-04T13:19:37.488Z,3.83
2022-11-04T13:22:10.514Z,4.40
2022-11-04T13:24:39.294Z,4.23
2022-11-04T13:27:27.409Z,4.27
2022-11-04T13:30:23.158Z,3.60
2022-11-04T13:33:34.531Z,3.77
2022-11-04T13:36:28.732Z,3.70
2022-11-04T13:38:58.121Z,3.50
2022-11-04T13:41:38.631Z,3.93
2022-11-04T13:44:29.018Z,4.27
2022-11-04T13:46:58.021Z,3.70
2022-11-04T13:49:30.769Z,3.97
2022-11-04T13:52:07.105Z,3.70
2022-11-04T13:54:42.954Z,3.90
2022-11-04T13:57:12.346Z,3.33
2022-11-04T13:59:39.781Z,4.33
2022-11-04T14:02:12.635Z,4.10
2022-11-04T14:04:43.857Z,4.30
2022-11-04T14:07:18.285Z,4.27
2022-11-04T14:09:44.824Z,3.90
2022-11-04T14:12:14.235Z,4.47
2022-11-04T14:14:42.251Z,4.80
2022-11-04T14:17:33.832Z,4.93
2022-11-04T14:20:06.680Z,3.90
2022-11-04T14:22:57.076Z,3.63
2022-11-04T14:25:26.651Z,4.57
2022-11-04T14:27:58.444Z,3.70
2022-11-04T14:30:34.522Z,4.53
2022-11-04T14:33:04.658Z,3.43
2022-11-04T14:35:32.073Z,4.97
2022-11-04T14:38:07.179Z,4.03
2022-11-04T14:40:50.198Z,4.43
2022-11-04T14:43:30.593Z,3.70
2022-11-04T14:45:57.489Z,4.80
2022-11-04T14:48:24.025Z,4.27
2022-11-04T14:50:52.878Z,4.17
2022-11-04T14:53:34.984Z,4.17
2022-11-04T14:56:23.956Z,4.13
2022-11-04T14:59:00.992Z,4.00
2022-11-04T15:01:34.222Z,4.60
2022-11-04T15:04:12.259Z,3.80
2022-11-04T15:06:54.097Z,4.10
2022-11-04T15:09:24.554Z,4.07
2022-11-04T15:12:16.672Z,3.73
2022-11-04T15:14:43.246Z,5.23
2022-11-04T15:17:16.738Z,5.53
2022-11-04T15:19:43.386Z,5.87
2022-11-04T15:22:13.290Z,4.83
2022-11-04T15:24:41.919Z,3.83
2022-11-04T15:27:14.057Z,4.47
2022-11-04T15:29:40.725Z,4.47
2022-11-04T15:32:07.407Z,4.93
2022-11-04T15:34:36.225Z,4.23
2022-11-04T15:37:05.506Z,4.47
2022-11-04T15:39:39.884Z,4.77
2022-11-04T15:42:26.440Z,4.03
2022-11-04T15:44:55.076Z,4.40
2022-11-04T15:47:28.241Z,4.87
